createdAt,value
2019-02-14T00:00:40.136Z,3.74
2019-02-14T00:01:39.927Z,3.78
2019-02-14T00:02:39.911Z,3.83
2019-02-14T00:03:40.107Z,3.76
2019-02-14T00:04:39.892Z,3.69
2019-02-14T00:05:40.094Z,3.63
2019-02-14T00:07:39.868Z,3.59
2019-02-14T00:08:40.267Z,3.62
2019-02-14T00:09:39.851Z,3.59
2019-02-14T00:10:40.045Z,3.62
2019-02-14T00:11:39.832Z,3.56
2019-02-14T00:12:39.821Z,3.60
2019-02-14T00:13:39.811Z,3.45
2019-02-14T00:14:39.808Z,3.47
2019-02-14T00:15:39.796Z,3.58
2019-02-14T00:16:39.792Z,3.51
2019-02-14T00:17:39.779Z,3.48
2019-02-14T00:18:39.768Z,3.48
2019-02-14T00:19:39.762Z,3.44
2019-02-14T00:20:39.745Z,3.37
2019-02-14T00:21:39.944Z,3.36
2019-02-14T00:22:39.934Z,3.34
2019-02-14T00:23:39.718Z,3.32
2019-02-14T00:24:39.910Z,3.22
2019-02-14T00:25:39.701Z,3.11
2019-02-14T00:27:39.685Z,3.14
2019-02-14T00:28:40.076Z,3.13
2019-02-14T00:29:39.872Z,3.18
2019-02-14T00:30:39.655Z,3.16
2019-02-14T00:31:39.653Z,3.14
2019-02-14T00:32:39.845Z,3.11
2019-02-14T00:33:39.628Z,3.11
2019-02-14T00:34:39.616Z,3.08
2019-02-14T00:35:39.608Z,3.04
2019-02-14T00:36:39.600Z,3.11
2019-02-14T00:37:39.595Z,3.03
2019-02-14T00:38:39.785Z,3.00
2019-02-14T00:40:39.562Z,3.00
2019-02-14T00:41:39.554Z,3.13
2019-02-14T00:42:39.548Z,3.13
2019-02-14T00:43:39.533Z,3.16
2019-02-14T00:45:39.516Z,3.22
2019-02-14T00:46:39.509Z,3.16
2019-02-14T00:47:39.499Z,3.16
2019-02-14T00:49:39.476Z,3.25
2019-02-14T00:50:39.472Z,3.16
2019-02-14T00:51:39.460Z,3.13
2019-02-14T00:52:39.453Z,3.04
2019-02-14T00:53:39.440Z,3.07
2019-02-14T00:54:39.435Z,3.10
2019-02-14T00:55:39.423Z,3.03
2019-02-14T00:56:39.409Z,3.04
2019-02-14T00:57:39.404Z,3.00
2019-02-14T00:58:39.394Z,3.03
2019-02-14T01:00:39.378Z,3.13
2019-02-14T01:01:39.367Z,3.07
2019-02-14T01:03:39.349Z,3.16
2019-02-14T01:05:39.331Z,3.23
2019-02-14T01:06:39.321Z,3.16
2019-02-14T01:09:12.502Z,3.19
2019-02-14T01:09:39.285Z,3.13
2019-02-14T01:10:39.282Z,3.21
2019-02-14T01:11:39.270Z,3.14
2019-02-14T01:12:39.266Z,3.22
2019-02-14T01:13:39.250Z,3.19
2019-02-14T01:14:39.240Z,3.19
2019-02-14T01:15:39.226Z,3.11
2019-02-14T01:16:39.224Z,3.22
2019-02-14T01:17:39.415Z,3.25
2019-02-14T01:18:39.199Z,3.29
2019-02-14T01:19:39.189Z,3.34
2019-02-14T01:20:39.183Z,3.44
2019-02-14T01:21:39.176Z,3.45
2019-02-14T01:22:39.369Z,3.44
2019-02-14T01:23:39.155Z,3.42
2019-02-14T01:24:39.142Z,3.41
2019-02-14T01:25:39.138Z,3.53
2019-02-14T01:27:39.116Z,3.62
2019-02-14T01:28:39.307Z,3.58
2019-02-14T01:29:39.095Z,3.58
2019-02-14T01:30:39.085Z,3.56
2019-02-14T01:31:39.075Z,3.56
2019-02-14T01:33:39.056Z,3.59
2019-02-14T01:35:41.977Z,3.60
2019-02-14T01:36:39.025Z,3.62
2019-02-14T01:37:39.016Z,3.60
2019-02-14T01:38:39.006Z,3.58
2019-02-14T01:39:39.017Z,3.62
2019-02-14T01:40:39.192Z,3.56
2019-02-14T01:41:38.978Z,3.62
2019-02-14T01:42:38.968Z,3.58
2019-02-14T01:43:38.963Z,3.68
2019-02-14T01:44:39.155Z,3.59
2019-02-14T01:45:38.939Z,3.63
2019-02-14T01:46:38.931Z,3.60
2019-02-14T01:47:38.923Z,3.62
2019-02-14T01:48:38.908Z,3.63
2019-02-14T01:49:38.902Z,3.60
2019-02-14T01:50:38.911Z,3.62
2019-02-14T01:51:38.885Z,3.68
2019-02-14T01:53:38.863Z,3.58
2019-02-14T01:54:38.850Z,3.62
2019-02-14T01:55:38.838Z,3.66
2019-02-14T01:56:38.834Z,3.73
2019-02-14T01:58:38.811Z,3.69
2019-02-14T01:59:38.804Z,3.59
2019-02-14T02:01:38.793Z,3.63
2019-02-14T02:03:38.759Z,3.53
2019-02-14T02:04:38.755Z,3.60
2019-02-14T02:05:38.741Z,3.59
2019-02-14T02:06:38.734Z,3.50
2019-02-14T02:07:38.728Z,3.48
2019-02-14T02:08:38.715Z,3.53
2019-02-14T02:09:38.705Z,3.37
2019-02-14T02:10:38.696Z,3.41
2019-02-14T02:11:38.691Z,3.41
2019-02-14T02:12:38.682Z,3.36
2019-02-14T02:17:38.630Z,3.19
2019-02-14T02:18:38.621Z,3.18
2019-02-14T02:19:38.611Z,3.23
2019-02-14T02:20:38.603Z,3.19
2019-02-14T02:21:38.586Z,3.31
2019-02-14T02:22:38.581Z,3.29
2019-02-14T02:23:38.565Z,3.29
2019-02-14T02:24:38.761Z,3.32
2019-02-14T02:25:38.550Z,3.26
2019-02-14T02:26:38.536Z,3.29
2019-02-14T02:27:38.559Z,3.19
2019-02-14T02:28:38.522Z,3.21
2019-02-14T02:29:38.709Z,3.19
2019-02-14T02:30:38.501Z,3.11
2019-02-14T02:31:38.692Z,3.08
2019-02-14T02:32:38.480Z,3.05
2019-02-14T02:33:38.470Z,3.03
2019-02-14T02:34:38.468Z,2.95
2019-02-14T02:35:38.658Z,2.98
2019-02-14T02:36:38.643Z,2.87
2019-02-14T02:38:38.421Z,2.85
2019-02-14T02:39:38.414Z,2.77
2019-02-14T02:41:38.394Z,2.65
2019-02-14T02:42:38.387Z,2.60
2019-02-14T02:43:38.378Z,2.62
2019-02-14T02:44:38.567Z,2.65
2019-02-14T02:45:38.365Z,2.56
2019-02-14T02:46:38.346Z,2.51
2019-02-14T02:47:38.331Z,2.68
2019-02-14T02:48:38.334Z,2.77
2019-02-14T02:49:38.319Z,2.64
2019-02-14T02:50:38.310Z,2.68
2019-02-14T02:52:38.282Z,2.71
2019-02-14T02:53:38.279Z,2.64
2019-02-14T02:55:38.266Z,2.50
2019-02-14T02:56:38.248Z,2.49
2019-02-14T02:57:38.236Z,2.49
2019-02-14T02:58:38.232Z,2.50
2019-02-14T03:00:38.204Z,2.49
2019-02-14T03:01:38.208Z,2.42
2019-02-14T03:02:38.392Z,2.32
2019-02-14T03:03:38.183Z,2.25
2019-02-14T03:04:38.172Z,2.36
2019-02-14T03:05:38.175Z,2.32
2019-02-14T03:06:38.351Z,2.31
2019-02-14T03:07:38.171Z,2.32
2019-02-14T03:09:38.116Z,2.20
2019-02-14T03:10:38.109Z,2.18
2019-02-14T03:12:38.696Z,2.20
2019-02-14T03:13:38.082Z,2.14
2019-02-14T03:14:38.070Z,2.18
2019-02-14T03:15:38.065Z,2.08
2019-02-14T03:16:38.050Z,2.11
2019-02-14T03:17:38.042Z,2.11
2019-02-14T03:18:38.037Z,2.02
2019-02-14T03:19:38.021Z,2.02
2019-02-14T03:20:38.017Z,1.99
2019-02-14T03:21:38.007Z,2.02
2019-02-14T03:22:37.995Z,2.02
2019-02-14T03:23:37.979Z,1.94
2019-02-14T03:24:37.972Z,1.87
2019-02-14T03:26:38.158Z,1.85
2019-02-14T03:28:37.933Z,1.85
2019-02-14T03:29:37.924Z,1.89
2019-02-14T03:30:37.919Z,1.73
2019-02-14T03:31:38.109Z,1.78
2019-02-14T03:32:37.899Z,1.67
2019-02-14T03:33:38.084Z,1.76
2019-02-14T03:34:37.878Z,1.76
2019-02-14T03:35:37.863Z,1.67
2019-02-14T03:36:37.859Z,1.62
2019-02-14T03:37:38.051Z,1.74
2019-02-14T03:38:38.040Z,1.71
2019-02-14T03:39:37.825Z,1.63
2019-02-14T03:41:37.801Z,1.66
2019-02-14T03:42:37.793Z,1.70
2019-02-14T03:45:37.763Z,1.67
2019-02-14T03:46:37.965Z,1.53
2019-02-14T03:47:37.742Z,1.53
2019-02-14T03:48:37.732Z,1.42
2019-02-14T03:49:37.723Z,1.42
2019-02-14T03:50:37.712Z,1.49
2019-02-14T03:51:37.704Z,1.48
2019-02-14T03:52:37.697Z,1.42
2019-02-14T03:53:37.682Z,1.48
2019-02-14T03:54:37.674Z,1.49
2019-02-14T03:56:37.652Z,1.31
2019-02-14T03:57:37.844Z,1.32
2019-02-14T03:59:37.630Z,1.31
2019-02-14T04:00:37.617Z,1.20
2019-02-14T04:01:37.603Z,1.35
2019-02-14T04:03:37.584Z,1.24
2019-02-14T04:04:37.581Z,1.24
2019-02-14T04:05:37.565Z,1.24
2019-02-14T04:06:37.756Z,1.20
2019-02-14T04:07:37.544Z,1.16
2019-02-14T04:09:37.529Z,1.19
2019-02-14T04:10:37.514Z,1.17
2019-02-14T04:11:37.502Z,1.17
2019-02-14T04:12:37.494Z,1.13
2019-02-14T04:15:37.464Z,1.14
2019-02-14T04:17:37.450Z,1.06
2019-02-14T04:18:37.435Z,1.12
2019-02-14T04:19:37.426Z,1.10
2019-02-14T04:20:37.416Z,1.13
2019-02-14T04:21:37.407Z,1.02
2019-02-14T04:22:37.391Z,1.10
2019-02-14T04:23:37.381Z,1.06
2019-02-14T04:24:37.379Z,1.10
2019-02-14T04:25:37.363Z,1.04
2019-02-14T04:26:37.556Z,1.01
2019-02-14T04:27:37.341Z,1.06
2019-02-14T04:28:37.334Z,1.04
2019-02-14T04:30:37.313Z,0.98
2019-02-14T04:31:37.300Z,0.88
2019-02-14T04:32:37.291Z,0.94
2019-02-14T04:33:37.285Z,0.88
2019-02-14T04:34:37.275Z,0.88
2019-02-14T04:35:37.260Z,0.86
2019-02-14T04:36:37.255Z,0.91
2019-02-14T04:37:37.445Z,0.86
2019-02-14T04:38:37.237Z,0.88
2019-02-14T04:39:37.221Z,0.84
2019-02-14T04:40:37.213Z,0.81
2019-02-14T04:41:37.405Z,0.83
2019-02-14T04:42:37.192Z,0.83
2019-02-14T04:43:37.183Z,0.84
2019-02-14T04:44:37.176Z,0.84
2019-02-14T04:45:37.165Z,0.81
2019-02-14T04:46:37.154Z,0.86
2019-02-14T04:47:37.144Z,0.83
2019-02-14T04:48:37.129Z,0.84
2019-02-14T04:50:37.114Z,0.76
2019-02-14T04:51:37.100Z,0.81
2019-02-14T04:53:37.280Z,0.73
2019-02-14T04:54:37.275Z,0.77
2019-02-14T04:55:37.058Z,0.86
2019-02-14T04:57:37.038Z,0.91
2019-02-14T04:58:37.231Z,0.80
2019-02-14T04:59:37.223Z,0.78
2019-02-14T05:00:37.007Z,0.81
2019-02-14T05:01:37.207Z,0.77
2019-02-14T05:02:37.006Z,0.77
2019-02-14T05:03:36.981Z,0.73
2019-02-14T05:04:36.968Z,0.81
2019-02-14T05:05:36.957Z,0.81
2019-02-14T05:08:36.928Z,0.86
2019-02-14T05:09:37.122Z,0.70
2019-02-14T05:10:36.904Z,0.68
2019-02-14T05:11:36.895Z,0.80
2019-02-14T05:12:37.092Z,0.80
2019-02-14T05:13:36.879Z,0.77
2019-02-14T05:14:36.868Z,0.66
2019-02-14T05:15:37.058Z,0.80
2019-02-14T05:16:36.841Z,0.73
2019-02-14T05:17:36.838Z,0.68
2019-02-14T05:18:36.828Z,0.66
2019-02-14T05:19:36.817Z,0.70
2019-02-14T05:21:36.798Z,0.59
2019-02-14T05:22:36.789Z,0.68
2019-02-14T05:24:36.763Z,0.56
2019-02-14T05:25:36.755Z,0.59
2019-02-14T05:27:36.732Z,0.56
2019-02-14T05:28:36.721Z,0.59
2019-02-14T05:29:37.919Z,0.69
2019-02-14T05:30:36.703Z,0.60
2019-02-14T05:31:37.604Z,0.49
2019-02-14T05:32:36.678Z,0.56
2019-02-14T05:33:36.672Z,0.50
2019-02-14T05:34:36.660Z,0.50
2019-02-14T05:35:36.652Z,0.55
2019-02-14T05:36:36.635Z,0.55
2019-02-14T05:37:36.633Z,0.50
2019-02-14T05:38:36.620Z,0.49
2019-02-14T05:39:36.604Z,0.56
2019-02-14T05:41:36.586Z,0.55
2019-02-14T05:42:36.582Z,0.65
2019-02-14T05:43:36.567Z,0.70
2019-02-14T05:44:36.573Z,0.70
2019-02-14T05:45:36.547Z,0.68
2019-02-14T05:46:36.535Z,0.77
2019-02-14T05:47:36.524Z,0.87
2019-02-14T05:48:36.517Z,0.84
2019-02-14T05:49:36.509Z,0.78
2019-02-14T05:50:36.491Z,0.87
2019-02-14T05:51:36.485Z,0.66
2019-02-14T05:52:36.477Z,0.83
2019-02-14T05:53:36.460Z,0.80
2019-02-14T05:55:36.445Z,0.84
2019-02-14T05:57:36.423Z,0.87
2019-02-14T05:58:36.408Z,0.83
2019-02-14T05:59:36.398Z,0.83
2019-02-14T06:00:36.590Z,0.78
2019-02-14T06:02:36.373Z,0.86
2019-02-14T06:03:36.361Z,0.77
2019-02-14T06:04:36.555Z,0.81
2019-02-14T06:05:36.545Z,0.77
2019-02-14T06:06:36.330Z,0.84
2019-02-14T06:07:36.320Z,0.76
2019-02-14T06:08:36.304Z,0.76
2019-02-14T06:10:36.492Z,0.84
2019-02-14T06:11:36.273Z,0.83
2019-02-14T06:12:36.273Z,0.69
2019-02-14T06:13:36.260Z,0.76
2019-02-14T06:14:36.248Z,0.77
2019-02-14T06:15:36.233Z,0.84
2019-02-14T06:16:36.224Z,0.77
2019-02-14T06:17:36.219Z,0.78
2019-02-14T06:18:36.209Z,0.80
2019-02-14T06:19:36.397Z,0.86
2019-02-14T06:20:36.189Z,0.70
2019-02-14T06:21:36.172Z,0.86
2019-02-14T06:23:36.152Z,0.84
2019-02-14T06:25:36.138Z,0.87
2019-02-14T06:26:36.125Z,0.87
2019-02-14T06:27:36.111Z,0.88
2019-02-14T06:28:37.364Z,0.88
2019-02-14T06:29:36.099Z,0.86
2019-02-14T06:30:36.085Z,0.84
2019-02-14T06:31:36.270Z,0.87
2019-02-14T06:32:36.064Z,0.84
2019-02-14T06:34:36.037Z,0.84
2019-02-14T06:35:36.033Z,0.81
2019-02-14T06:36:36.024Z,0.91
2019-02-14T06:37:36.217Z,0.84
2019-02-14T06:38:36.002Z,0.88
2019-02-14T06:39:35.988Z,0.86
2019-02-14T06:41:35.971Z,0.91
2019-02-14T06:43:35.952Z,1.14
2019-02-14T06:45:35.931Z,1.19
2019-02-14T06:46:35.920Z,1.16
2019-02-14T06:47:35.904Z,1.22
2019-02-14T06:49:35.888Z,1.14
2019-02-14T06:50:35.879Z,1.13
2019-02-14T06:51:35.868Z,1.14
2019-02-14T06:52:35.856Z,1.22
2019-02-14T06:53:35.848Z,1.20
2019-02-14T06:54:35.839Z,1.17
2019-02-14T06:56:35.817Z,1.13
2019-02-14T06:57:35.808Z,1.04
2019-02-14T06:58:35.794Z,1.06
2019-02-14T06:59:35.985Z,1.08
2019-02-14T07:00:35.778Z,1.08
2019-02-14T07:01:35.767Z,1.01
2019-02-14T07:02:35.753Z,1.01
2019-02-14T07:03:35.748Z,1.05
2019-02-14T07:05:09.142Z,1.05
2019-02-14T07:06:35.913Z,1.01
2019-02-14T07:07:35.703Z,0.96
2019-02-14T07:08:35.696Z,0.95
2019-02-14T07:09:36.096Z,1.01
2019-02-14T07:10:35.671Z,0.96
2019-02-14T07:11:35.667Z,0.98
2019-02-14T07:12:35.650Z,1.04
2019-02-14T07:13:35.851Z,1.02
2019-02-14T07:14:35.632Z,1.06
2019-02-14T07:15:35.619Z,1.08
2019-02-14T07:16:35.620Z,1.05
2019-02-14T07:17:35.605Z,1.12
2019-02-14T07:18:35.592Z,1.10
2019-02-14T07:21:35.567Z,1.30
2019-02-14T07:22:35.551Z,1.24
2019-02-14T07:23:35.544Z,1.37
2019-02-14T07:24:35.534Z,1.42
2019-02-14T07:25:35.527Z,1.37
2019-02-14T07:26:35.718Z,1.40
2019-02-14T07:27:35.706Z,1.45
2019-02-14T07:28:35.496Z,1.41
2019-02-14T07:29:35.486Z,1.50
2019-02-14T07:30:35.471Z,1.49
2019-02-14T07:31:35.666Z,1.58
2019-02-14T07:33:35.443Z,1.59
2019-02-14T07:34:35.632Z,1.60
2019-02-14T07:35:35.424Z,1.59
2019-02-14T07:36:35.413Z,1.62
2019-02-14T07:37:35.404Z,1.60
2019-02-14T07:38:35.398Z,1.62
2019-02-14T07:39:35.382Z,1.59
2019-02-14T07:40:35.380Z,1.70
2019-02-14T07:41:35.361Z,1.71
2019-02-14T07:42:35.356Z,1.71
2019-02-14T07:43:35.348Z,1.68
2019-02-14T07:44:35.333Z,1.68
2019-02-14T07:45:35.329Z,1.78
2019-02-14T07:46:35.321Z,1.87
2019-02-14T07:47:35.302Z,1.92
2019-02-14T07:50:35.282Z,2.06
2019-02-14T07:52:35.462Z,2.11
2019-02-14T07:53:35.449Z,2.11
2019-02-14T07:55:35.226Z,2.20
2019-02-14T07:56:35.221Z,2.15
2019-02-14T07:57:35.214Z,2.26
2019-02-14T07:58:35.198Z,2.22
2019-02-14T07:59:35.192Z,2.28
2019-02-14T08:00:35.186Z,2.38
2019-02-14T08:01:35.171Z,2.29
2019-02-14T08:02:35.425Z,2.33
2019-02-14T08:03:35.159Z,2.43
2019-02-14T08:04:35.346Z,2.44
2019-02-14T08:06:35.127Z,2.49
2019-02-14T08:07:36.142Z,2.51
2019-02-14T08:08:35.107Z,2.56
2019-02-14T08:09:35.096Z,2.62
2019-02-14T08:10:35.295Z,2.62
2019-02-14T08:11:35.080Z,2.69
2019-02-14T08:12:35.270Z,2.75
2019-02-14T08:13:35.069Z,2.77
2019-02-14T08:14:35.258Z,2.95
2019-02-14T08:15:35.048Z,2.83
2019-02-14T08:16:35.235Z,2.93
2019-02-14T08:17:35.025Z,2.90
2019-02-14T08:19:35.011Z,3.11
2019-02-14T08:20:35.207Z,3.05
2019-02-14T08:22:34.988Z,3.23
2019-02-14T08:23:34.971Z,3.14
2019-02-14T08:24:35.172Z,3.19
2019-02-14T08:25:34.961Z,3.31
2019-02-14T08:27:34.942Z,3.25
2019-02-14T08:28:34.933Z,3.29
2019-02-14T08:29:34.924Z,3.31
2019-02-14T08:30:34.916Z,3.31
2019-02-14T08:32:34.894Z,3.31
2019-02-14T08:33:34.886Z,3.37
2019-02-14T08:34:34.872Z,3.36
2019-02-14T08:35:35.069Z,3.40
2019-02-14T08:36:34.854Z,3.42
2019-02-14T08:37:34.845Z,3.34
2019-02-14T08:38:34.847Z,3.51
2019-02-14T08:39:34.828Z,3.47
2019-02-14T08:40:34.821Z,3.53
2019-02-14T08:41:35.215Z,3.56
2019-02-14T08:42:35.002Z,3.58
2019-02-14T08:43:34.792Z,3.58
2019-02-14T08:44:34.788Z,3.59
2019-02-14T08:46:34.770Z,3.69
2019-02-14T08:47:34.759Z,3.84
2019-02-14T08:49:35.292Z,3.86
2019-02-14T08:50:34.728Z,3.84
2019-02-14T08:51:34.718Z,3.84
2019-02-14T08:53:34.709Z,3.94
2019-02-14T08:54:34.702Z,4.02
2019-02-14T08:55:34.687Z,4.04
2019-02-14T08:56:34.684Z,4.04
2019-02-14T08:57:34.889Z,4.01
2019-02-14T08:58:34.667Z,4.17
2019-02-14T08:59:34.650Z,4.34
2019-02-14T09:01:34.634Z,4.32
2019-02-14T09:02:34.633Z,4.35
2019-02-14T09:03:34.620Z,4.40
2019-02-14T09:04:34.609Z,4.56
2019-02-14T09:05:34.603Z,4.55
2019-02-14T09:06:34.597Z,4.49
2019-02-14T09:07:34.787Z,4.58
2019-02-14T09:09:34.567Z,4.49
2019-02-14T09:10:34.769Z,4.53
2019-02-14T09:11:34.553Z,4.55
2019-02-14T09:12:35.625Z,4.62
2019-02-14T09:13:34.541Z,4.70
2019-02-14T09:14:34.532Z,4.71
2019-02-14T09:15:34.522Z,4.75
2019-02-14T09:16:34.508Z,4.78
2019-02-14T09:17:34.501Z,4.77
2019-02-14T09:18:34.494Z,4.86
2019-02-14T09:19:34.490Z,4.90
2019-02-14T09:21:34.473Z,5.04
2019-02-14T09:22:34.872Z,5.04
2019-02-14T09:23:34.451Z,5.12
2019-02-14T09:24:34.452Z,5.11
2019-02-14T09:25:34.440Z,5.18
2019-02-14T09:26:34.435Z,5.20
2019-02-14T09:27:35.837Z,5.15
2019-02-14T09:28:34.417Z,5.41
2019-02-14T09:29:34.404Z,5.36
2019-02-14T09:30:34.407Z,5.44
2019-02-14T09:31:34.390Z,5.46
2019-02-14T09:32:34.382Z,5.68
2019-02-14T09:33:34.575Z,5.76
2019-02-14T09:34:34.370Z,5.73
2019-02-14T09:35:34.356Z,5.89
2019-02-14T09:36:34.560Z,5.99
2019-02-14T09:37:34.341Z,5.93
2019-02-14T09:38:34.332Z,6.09
2019-02-14T09:39:40.816Z,6.01
2019-02-14T09:40:34.316Z,6.04
2019-02-14T09:41:34.316Z,6.04
2019-02-14T09:42:34.306Z,6.04
2019-02-14T09:43:34.507Z,5.98
2019-02-14T09:45:34.279Z,6.01
2019-02-14T09:46:34.277Z,6.04
2019-02-14T09:47:34.280Z,6.11
2019-02-14T09:48:34.260Z,6.24
2019-02-14T09:49:34.256Z,6.24
2019-02-14T09:51:07.447Z,6.36
2019-02-14T09:51:34.240Z,6.38
2019-02-14T09:52:34.435Z,6.35
2019-02-14T09:53:34.222Z,6.49
2019-02-14T09:54:34.417Z,6.56
2019-02-14T09:55:34.207Z,6.66
2019-02-14T09:56:34.403Z,6.74
2019-02-14T09:57:34.189Z,6.69
2019-02-14T09:59:34.196Z,6.72
2019-02-14T10:00:34.179Z,6.81
2019-02-14T10:02:34.153Z,6.99
2019-02-14T10:03:34.152Z,7.03
2019-02-14T10:04:34.338Z,7.17
2019-02-14T10:05:34.335Z,7.23
2019-02-14T10:07:34.119Z,7.29
2019-02-14T10:08:34.119Z,7.25
2019-02-14T10:10:34.299Z,7.21
2019-02-14T10:11:34.113Z,7.17
2019-02-14T10:12:34.090Z,7.21
2019-02-14T10:13:34.076Z,7.25
2019-02-14T10:14:34.279Z,7.31
2019-02-14T10:15:34.063Z,7.38
2019-02-14T10:16:34.062Z,7.23
2019-02-14T10:17:34.058Z,7.18
2019-02-14T10:18:34.043Z,7.24
2019-02-14T10:19:34.239Z,7.21
2019-02-14T10:20:34.034Z,7.20
2019-02-14T10:21:34.026Z,7.33
2019-02-14T10:22:34.026Z,7.32
2019-02-14T10:23:34.016Z,7.23
2019-02-14T10:24:34.014Z,7.24
2019-02-14T10:25:34.001Z,7.31
2019-02-14T10:27:33.992Z,7.35
2019-02-14T10:28:33.981Z,7.35
2019-02-14T10:29:33.974Z,7.36
2019-02-14T10:30:33.973Z,7.54
2019-02-14T10:31:33.963Z,7.35
2019-02-14T10:32:33.955Z,7.48
2019-02-14T10:33:33.952Z,7.53
2019-02-14T10:34:33.946Z,7.67
2019-02-14T10:35:33.936Z,7.90
2019-02-14T10:36:34.135Z,7.97
2019-02-14T10:37:34.141Z,8.12
2019-02-14T10:40:33.910Z,8.46
2019-02-14T10:41:33.908Z,8.53
2019-02-14T10:42:33.904Z,8.81
2019-02-14T10:44:33.889Z,9.14
2019-02-14T10:45:34.088Z,9.41
2019-02-14T10:46:35.640Z,9.61
2019-02-14T10:47:33.870Z,9.82
2019-02-14T10:48:33.864Z,9.94
2019-02-14T10:49:33.865Z,10.35
2019-02-14T10:50:34.060Z,10.54
2019-02-14T10:51:34.056Z,10.89
2019-02-14T10:52:33.849Z,11.05
2019-02-14T10:53:33.843Z,11.35
2019-02-14T10:54:33.838Z,11.48
2019-02-14T10:56:33.835Z,11.77
2019-02-14T10:57:33.827Z,11.45
2019-02-14T10:58:33.822Z,11.32
2019-02-14T10:59:33.823Z,11.14
2019-02-14T11:00:34.019Z,11.17
2019-02-14T11:02:33.807Z,11.37
2019-02-14T11:03:33.806Z,11.45
2019-02-14T11:04:34.003Z,11.77
2019-02-14T11:05:35.531Z,12.02
2019-02-14T11:06:33.795Z,11.99
2019-02-14T11:08:33.786Z,11.86
2019-02-14T11:09:33.785Z,11.86
2019-02-14T11:10:33.785Z,11.33
2019-02-14T11:11:33.773Z,11.35
2019-02-14T11:13:33.776Z,11.37
2019-02-14T11:14:33.771Z,11.43
2019-02-14T11:16:33.765Z,11.44
2019-02-14T11:17:33.755Z,11.83
2019-02-14T11:18:33.755Z,12.21
2019-02-14T11:19:33.751Z,12.58
2019-02-14T11:20:33.751Z,13.00
2019-02-14T11:22:33.749Z,13.27
2019-02-14T11:23:33.955Z,13.16
2019-02-14T11:24:33.750Z,13.31
2019-02-14T11:25:33.744Z,12.95
2019-02-14T11:26:33.945Z,13.01
2019-02-14T11:27:33.757Z,13.19
2019-02-14T11:29:33.749Z,13.78
2019-02-14T11:30:33.950Z,14.11
2019-02-14T11:31:34.736Z,14.04
2019-02-14T11:32:33.752Z,13.41
2019-02-14T11:33:33.755Z,13.25
2019-02-14T11:34:33.749Z,13.12
2019-02-14T11:35:33.749Z,13.25
2019-02-14T11:36:33.757Z,13.38
2019-02-14T11:37:33.813Z,13.52
2019-02-14T11:39:33.758Z,13.31
2019-02-14T11:40:33.960Z,13.16
2019-02-14T11:41:33.754Z,13.33
2019-02-14T11:42:33.765Z,13.11
2019-02-14T11:43:33.763Z,13.37
2019-02-14T11:44:39.576Z,13.37
2019-02-14T11:46:33.763Z,13.41
2019-02-14T11:49:33.972Z,13.57
2019-02-14T11:50:33.768Z,13.77
2019-02-14T11:51:33.770Z,13.96
2019-02-14T11:52:33.775Z,13.77
2019-02-14T11:53:33.773Z,14.03
2019-02-14T11:54:33.780Z,14.23
2019-02-14T11:55:33.778Z,14.48
2019-02-14T11:56:33.783Z,14.73
2019-02-14T11:57:33.995Z,15.04
2019-02-14T11:58:33.799Z,14.84
2019-02-14T11:59:33.800Z,14.85
2019-02-14T12:00:34.004Z,14.60
2019-02-14T12:01:33.800Z,14.54
2019-02-14T12:03:33.810Z,14.51
2019-02-14T12:05:33.822Z,14.59
2019-02-14T12:06:36.480Z,14.62
2019-02-14T12:07:33.831Z,14.58
2019-02-14T12:08:33.838Z,14.36
2019-02-14T12:09:33.836Z,14.32
2019-02-14T12:10:33.847Z,14.40
2019-02-14T12:11:33.847Z,14.58
2019-02-14T12:13:33.856Z,14.84
2019-02-14T12:14:33.868Z,14.79
2019-02-14T12:15:34.069Z,15.10
2019-02-14T12:16:34.273Z,14.99
2019-02-14T12:17:33.879Z,14.86
2019-02-14T12:18:34.085Z,14.82
2019-02-14T12:19:33.884Z,15.02
2019-02-14T12:20:33.896Z,15.07
2019-02-14T12:21:33.904Z,15.70
2019-02-14T12:24:34.932Z,15.47
2019-02-14T12:25:33.919Z,15.51
2019-02-14T12:27:33.929Z,15.67
2019-02-14T12:28:33.937Z,15.80
2019-02-14T12:29:34.349Z,16.02
2019-02-14T12:30:33.954Z,16.08
2019-02-14T12:34:33.979Z,16.49
2019-02-14T12:35:34.181Z,16.01
2019-02-14T12:36:34.007Z,16.26
2019-02-14T12:37:34.189Z,16.71
2019-02-14T12:39:09.966Z,16.91
2019-02-14T12:40:34.213Z,17.27
2019-02-14T12:41:34.012Z,17.49
2019-02-14T12:43:34.029Z,17.08
2019-02-14T12:44:34.029Z,16.75
2019-02-14T12:45:34.041Z,17.04
2019-02-14T12:46:34.041Z,16.89
2019-02-14T12:47:34.056Z,16.87
2019-02-14T12:48:34.065Z,16.61
2019-02-14T12:51:34.078Z,16.74
2019-02-14T12:52:34.087Z,16.96
2019-02-14T12:53:34.089Z,17.05
2019-02-14T12:54:34.098Z,16.94
2019-02-14T12:55:34.101Z,17.01
2019-02-14T12:58:34.124Z,17.74
2019-02-14T12:59:34.134Z,17.87
2019-02-14T13:01:34.150Z,18.18
2019-02-14T13:02:34.159Z,18.13
2019-02-14T13:03:34.161Z,18.40
2019-02-14T13:05:34.381Z,18.74
2019-02-14T13:06:34.191Z,18.93
2019-02-14T13:07:34.191Z,18.65
2019-02-14T13:08:34.402Z,18.29
2019-02-14T13:09:34.207Z,18.34
2019-02-14T13:10:34.213Z,18.49
2019-02-14T13:11:34.429Z,18.19
2019-02-14T13:12:34.237Z,17.89
2019-02-14T13:14:34.250Z,18.34
2019-02-14T13:15:34.253Z,18.68
2019-02-14T13:16:34.266Z,18.59
2019-02-14T13:17:34.474Z,18.38
2019-02-14T13:19:34.281Z,18.45
2019-02-14T13:20:34.297Z,18.60
2019-02-14T13:21:34.502Z,18.78
2019-02-14T13:22:34.316Z,19.22
2019-02-14T13:24:34.529Z,19.91
2019-02-14T13:26:34.538Z,19.85
2019-02-14T13:27:34.347Z,19.37
2019-02-14T13:28:34.765Z,19.22
2019-02-14T13:29:34.367Z,19.41
2019-02-14T13:30:34.379Z,19.39
2019-02-14T13:31:34.381Z,19.62
2019-02-14T13:32:34.398Z,19.76
2019-02-14T13:33:34.401Z,20.00
2019-02-14T13:37:34.437Z,19.47
2019-02-14T13:40:34.658Z,19.74
2019-02-14T13:42:34.475Z,19.76
2019-02-14T13:44:34.502Z,19.96
2019-02-14T13:45:34.495Z,20.11
2019-02-14T13:46:34.503Z,20.69
2019-02-14T13:47:34.520Z,21.12
2019-02-14T13:49:34.533Z,20.78
2019-02-14T13:50:34.542Z,20.41
2019-02-14T13:51:34.553Z,19.96
2019-02-14T13:52:36.203Z,20.19
2019-02-14T13:53:34.570Z,20.52
2019-02-14T13:54:34.573Z,20.40
2019-02-14T13:55:34.583Z,20.67
2019-02-14T13:56:34.596Z,20.60
2019-02-14T13:57:34.604Z,20.75
2019-02-14T13:58:34.617Z,20.40
2019-02-14T13:59:34.626Z,20.69
2019-02-14T14:00:34.639Z,20.41
2019-02-14T14:04:34.672Z,20.99
2019-02-14T14:05:34.674Z,21.60
2019-02-14T14:06:34.887Z,21.83
2019-02-14T14:07:40.435Z,22.14
2019-02-14T14:08:34.733Z,22.44
2019-02-14T14:09:38.815Z,22.68
2019-02-14T14:10:34.723Z,22.85
2019-02-14T14:11:34.729Z,22.91
2019-02-14T14:12:34.741Z,22.60
2019-02-14T14:13:34.749Z,22.70
2019-02-14T14:14:34.761Z,22.15
2019-02-14T14:15:34.770Z,22.23
2019-02-14T14:16:34.979Z,22.18
2019-02-14T14:17:35.469Z,22.35
2019-02-14T14:18:34.794Z,21.80
2019-02-14T14:19:34.795Z,22.13
2019-02-14T14:20:34.806Z,22.15
2019-02-14T14:21:34.813Z,22.59
2019-02-14T14:22:35.034Z,23.06
2019-02-14T14:23:34.838Z,23.34
2019-02-14T14:25:35.055Z,23.68
2019-02-14T14:26:35.070Z,23.65
2019-02-14T14:27:34.870Z,23.13
2019-02-14T14:28:34.881Z,22.87
2019-02-14T14:30:34.898Z,22.45
2019-02-14T14:32:34.918Z,21.43
2019-02-14T14:33:34.926Z,21.17
2019-02-14T14:35:08.346Z,21.36
2019-02-14T14:35:34.945Z,21.80
2019-02-14T14:36:34.955Z,21.99
2019-02-14T14:37:35.167Z,22.50
2019-02-14T14:38:34.973Z,22.59
2019-02-14T14:39:34.980Z,22.80
2019-02-14T14:41:35.200Z,23.08
2019-02-14T14:42:35.006Z,22.36
2019-02-14T14:43:35.022Z,22.29
2019-02-14T14:44:35.019Z,22.65
2019-02-14T14:45:35.029Z,22.94
2019-02-14T14:47:35.047Z,22.06
2019-02-14T14:48:35.056Z,22.00
2019-02-14T14:49:35.064Z,21.92
2019-02-14T14:50:35.270Z,21.54
2019-02-14T14:51:35.284Z,21.51
2019-02-14T14:52:35.086Z,21.39
2019-02-14T14:53:35.292Z,20.84
2019-02-14T14:54:35.104Z,21.43
2019-02-14T14:55:35.112Z,21.62
2019-02-14T14:56:35.318Z,21.54
2019-02-14T14:57:35.138Z,21.54
2019-02-14T14:58:35.133Z,21.89
2019-02-14T15:00:35.148Z,22.20
2019-02-14T15:01:35.158Z,22.23
2019-02-14T15:02:35.162Z,22.62
2019-02-14T15:04:35.178Z,23.03
2019-02-14T15:06:35.189Z,23.08
2019-02-14T15:08:35.205Z,23.24
2019-02-14T15:09:35.219Z,22.51
2019-02-14T15:11:35.234Z,23.61
2019-02-14T15:12:35.438Z,23.74
2019-02-14T15:13:35.248Z,23.96
2019-02-14T15:14:35.248Z,24.32
2019-02-14T15:15:35.476Z,24.36
2019-02-14T15:17:35.274Z,24.14
2019-02-14T15:19:35.286Z,24.51
2019-02-14T15:20:35.307Z,24.76
2019-02-14T15:21:35.299Z,24.80
2019-02-14T15:23:35.320Z,24.92
2019-02-14T15:24:35.320Z,24.70
2019-02-14T15:25:35.331Z,23.83
2019-02-14T15:26:35.331Z,23.59
2019-02-14T15:27:35.334Z,22.96
2019-02-14T15:28:37.372Z,22.68
2019-02-14T15:29:35.354Z,22.23
2019-02-14T15:30:35.351Z,21.79
2019-02-14T15:31:35.366Z,21.61
2019-02-14T15:35:35.375Z,20.85
2019-02-14T15:36:35.784Z,20.99
2019-02-14T15:37:35.797Z,21.09
2019-02-14T15:38:37.026Z,21.05